Flight Track Log - Related Links

Times and Time Zones

All times are in EST time to prevent confusion due to time zone crossing. See the FLG3530 flight status page for this flight to view local times or setup timezone preferences in your user account.

Time Position Orientation Groundspeed Altitude Reporting Facility
EST Latitude Longitude Course Direction KTS MPH feet Rate Location/Type
Thu 10:47:09 PM 42.2125 -83.3653 213° Southwest 146 168 1,300  Level Cleveland Center
Thu 10:47:51 PM 42.1878 -83.3869 213° Southwest 164 189 3,400 2,621 Climbing Cleveland Center
Thu 10:48:52 PM 42.1389 -83.4225 208° Southwest 223 257 5,800 2,118 Climbing Cleveland Center
Thu 10:49:16 PM 42.1297 -83.4394 234° Southwest 211 243 6,400 2,776 Climbing Cleveland Center
Thu 10:49:59 PM 42.1353 -83.5206 275° West 245 282 8,900 2,951 Climbing Cleveland Center
Thu 10:50:17 PM 42.1361 -83.5331 275° West 245 282 9,400 1,180 Climbing Cleveland Center
Thu 10:51:00 PM 42.1506 -83.6183 283° West 282 325 10,100 689 Climbing Cleveland Center
Thu 10:51:18 PM 42.1575 -83.6458 289° West 285 328 10,100 75 Level Cleveland Center
Thu 10:52:20 PM 42.1808 -83.7700 284° West 335 386 10,200 976 Climbing Cleveland Center
Thu 10:53:21 PM 42.2061 -83.8961 285° West 347 399 12,100 934 Climbing Cleveland Center
Thu 10:54:22 PM 42.2322 -84.0292 285° West 363 418 12,100  Level Cleveland Center
Thu 10:55:23 PM 42.2586 -84.1611 285° West 364 419 12,100 -49 Level Cleveland Center
Thu 10:56:24 PM 42.2619 -84.2936 272° West 355 409 12,000 -54 Descending Cleveland Center
Thu 10:57:14 PM 42.2614 -84.3961 270° West 357 411 12,000 -429 Level Chicago Center
Thu 10:58:16 PM 42.2594 -84.5547 269° West 354 407 11,200 -488 Descending Chicago Center
Thu 10:59:17 PM 42.2561 -84.6808 268° West 344 396 11,000 -98 Descending Chicago Center
Thu 11:00:18 PM 42.2528 -84.8028 268° West 330 380 11,000  Level Chicago Center
Thu 11:01:19 PM 42.2500 -84.9222 268° West 323 372 11,000  Level Chicago Center
Thu 11:02:20 PM 42.2472 -85.0372 268° West 313 360 11,000 -836 Level Chicago Center
Thu 11:03:21 PM 42.2467 -85.1275 270° West 274 315 9,300 -1,967 Descending Chicago Center
Thu 11:04:22 PM 42.2642 -85.2214 284° West 271 312 7,000 -2,016 Descending Chicago Center
Thu 11:05:23 PM 42.3050 -85.3031 304° West 263 303 5,200 -1,377 Descending Chicago Center
Thu 11:06:24 PM 42.3708 -85.3394 338° Northwest 266 306 4,200 -590 Descending Chicago Center
Thu 11:07:25 PM 42.4372 -85.3686 342° North 254 292 4,000 -590 Descending Chicago Center
Thu 11:08:26 PM 42.5031 -85.3975 342° North 251 289 3,000 -492 Descending Chicago Center
Thu 11:09:27 PM 42.5594 -85.4447 328° Northwest 211 243 3,000  Level Chicago Center
Thu 11:10:29 PM 42.5303 -85.5067 237° Southwest 229 264 3,000  Level Chicago Center
Thu 11:11:30 PM 42.4919 -85.5550 223° Southwest 201 231 3,000 -49 Level Chicago Center
Thu 11:12:31 PM 42.4514 -85.5953 216° Southwest 201 231 2,900 -98 Descending Chicago Center
Thu 11:13:32 PM 42.4053 -85.5861 172° South 176 203 2,800 -49 Descending Chicago Center
Thu 11:14:33 PM 42.3628 -85.5769 171° South 159 183 2,800 -197 Level Chicago Center
Thu 11:15:34 PM 42.3208 -85.5681 171° South 155 178 2,400 -639 Descending Chicago Center
Thu 11:16:35 PM 42.2800 -85.5597 171° South 143 165 1,500 -541 Descending Chicago Center
Thu 11:17:36 PM 42.2469 -85.5525 171° South 139 160 1,300 -197 Descending Chicago Center

Login

Don't have an account? Register now (free) for customized features, flight alerts, and more!